createdAt,value
2019-06-25T00:00:49.879Z,1000.4
2019-06-25T00:01:50.539Z,1000.4
2019-06-25T00:02:51.198Z,1000.3
2019-06-25T00:03:51.868Z,1000.3
2019-06-25T00:04:52.575Z,1000.2
2019-06-25T00:05:53.270Z,1000.3
2019-06-25T00:06:53.929Z,1000.3
2019-06-25T00:07:54.587Z,1000.3
2019-06-25T00:08:55.249Z,1000.3
2019-06-25T00:09:55.913Z,1000.2
2019-06-25T00:10:56.618Z,1000.2
2019-06-25T00:11:57.278Z,1000.2
2019-06-25T00:12:57.939Z,1000.3
2019-06-25T00:13:58.601Z,1000.3
2019-06-25T00:15:00.720Z,1000.3
2019-06-25T00:16:01.383Z,1000.3
2019-06-25T00:17:02.045Z,1000.3
2019-06-25T00:18:02.706Z,1000.3
2019-06-25T00:19:03.409Z,1000.3
2019-06-25T00:20:04.081Z,1000.3
2019-06-25T00:21:06.187Z,1000.3
2019-06-25T00:22:06.848Z,1000.3
2019-06-25T00:23:07.508Z,1000.3
2019-06-25T00:24:08.371Z,1000.3
2019-06-25T00:25:09.031Z,1000.3
2019-06-25T00:26:09.694Z,1000.3
2019-06-25T00:27:10.364Z,1000.3
2019-06-25T00:28:11.015Z,1000.3
2019-06-25T00:29:11.675Z,1000.3
2019-06-25T00:30:12.338Z,1000.3
2019-06-25T00:31:12.998Z,1000.3
2019-06-25T00:32:13.658Z,1000.3
2019-06-25T00:33:14.318Z,1000.2
2019-06-25T00:34:15.997Z,1000.2
2019-06-25T00:35:16.706Z,1000.2
2019-06-25T00:36:17.380Z,1000.2
2019-06-25T00:37:18.055Z,1000.2
2019-06-25T00:38:18.769Z,1000.2
2019-06-25T00:39:19.445Z,1000.2
2019-06-25T00:40:20.120Z,1000.2
2019-06-25T00:41:20.792Z,1000.2
2019-06-25T00:42:21.463Z,1000.2
2019-06-25T00:43:22.193Z,1000.2
2019-06-25T00:44:22.820Z,1000.1
2019-06-25T00:45:23.487Z,1000.2
2019-06-25T00:46:24.159Z,1000.2
2019-06-25T00:47:24.829Z,1000.2
2019-06-25T00:48:25.515Z,1000.2
2019-06-25T00:49:26.215Z,1000.2
2019-06-25T00:50:26.886Z,1000.2
2019-06-25T00:51:27.560Z,1000.2
2019-06-25T00:52:28.231Z,1000.1
2019-06-25T00:53:28.941Z,1000.1
2019-06-25T00:54:29.621Z,1000.1
2019-06-25T00:55:30.285Z,1000.1
2019-06-25T00:56:30.959Z,1000.1
2019-06-25T00:57:31.634Z,1000.1
2019-06-25T00:58:32.349Z,1000.1
2019-06-25T00:59:33.029Z,1000.1
2019-06-25T01:00:33.691Z,1000.1
2019-06-25T01:01:34.361Z,1000.0
2019-06-25T01:02:35.033Z,1000.1
2019-06-25T01:03:35.744Z,1000.0
2019-06-25T01:04:36.419Z,1000.0
2019-06-25T01:05:37.129Z,1000.0
2019-06-25T01:06:37.801Z,1000.1
2019-06-25T01:07:38.479Z,1000.1
2019-06-25T03:18:17.388Z,999.8
2019-06-25T03:19:18.055Z,999.8
2019-06-25T03:20:18.725Z,999.7
2019-06-25T03:21:19.395Z,999.7
2019-06-25T03:22:20.106Z,999.8
2019-06-25T03:23:20.778Z,999.7
2019-06-25T03:24:21.448Z,999.8
2019-06-25T03:25:22.118Z,999.8
2019-06-25T03:26:22.790Z,999.8
2019-06-25T03:27:23.462Z,999.8
2019-06-25T03:28:24.131Z,999.8
2019-06-25T03:29:24.802Z,999.8
2019-06-25T03:30:25.475Z,999.7
2019-06-25T03:31:26.178Z,999.7
2019-06-25T03:32:26.851Z,999.8
2019-06-25T03:33:27.517Z,999.8
2019-06-25T03:34:28.187Z,999.8
2019-06-25T03:35:28.870Z,999.8
2019-06-25T03:36:29.531Z,999.8
2019-06-25T03:37:30.201Z,999.8
2019-06-25T03:38:30.871Z,999.8
2019-06-25T03:39:31.558Z,999.8
2019-06-25T03:40:32.243Z,999.8
2019-06-25T03:41:32.922Z,999.9
2019-06-25T03:42:33.594Z,999.9
2019-06-25T03:43:34.263Z,999.9
2019-06-25T03:44:34.933Z,999.9
2019-06-25T03:45:35.607Z,999.9
2019-06-25T03:46:36.310Z,999.9
2019-06-25T03:47:36.983Z,999.9
2019-06-25T03:48:37.690Z,999.9
2019-06-25T03:49:38.361Z,999.9
2019-06-25T03:50:39.034Z,999.9
2019-06-25T03:51:39.706Z,999.9
2019-06-25T03:52:40.377Z,999.9
2019-06-25T03:53:41.049Z,999.9
2019-06-25T03:54:41.725Z,999.9
2019-06-25T03:55:42.438Z,999.9
2019-06-25T03:56:43.103Z,999.9
2019-06-25T03:57:43.774Z,1000.0
2019-06-25T03:58:44.445Z,999.9
2019-06-25T03:59:45.116Z,999.9
2019-06-25T04:00:45.842Z,999.9
2019-06-25T04:01:46.550Z,999.9
2019-06-25T04:02:47.219Z,999.9
2019-06-25T04:03:47.892Z,999.9
2019-06-25T04:04:48.563Z,999.9
2019-06-25T04:05:49.239Z,999.9
2019-06-25T04:06:49.906Z,999.9
2019-06-25T04:07:50.577Z,1000.0
2019-06-25T04:08:51.249Z,1000.0
2019-06-25T04:09:51.942Z,1000.0
2019-06-25T04:10:52.594Z,999.9
2019-06-25T04:11:53.266Z,1000.0
2019-06-25T04:12:53.939Z,1000.0
2019-06-25T04:13:54.611Z,1000.0
2019-06-25T04:14:55.285Z,1000.0
2019-06-25T04:15:55.955Z,1000.0
2019-06-25T04:16:56.630Z,1000.0
2019-06-25T04:17:57.303Z,1000.0
2019-06-25T04:18:57.974Z,999.9
2019-06-25T04:19:58.645Z,999.9
2019-06-25T04:20:59.323Z,999.9
2019-06-25T04:22:00.030Z,1000.0
2019-06-25T04:23:00.705Z,999.9
2019-06-25T04:24:01.472Z,1000.0
2019-06-25T04:25:02.145Z,1000.0
2019-06-25T04:26:02.830Z,1000.0
2019-06-25T04:27:03.529Z,1000.0
2019-06-25T04:28:04.198Z,1000.0
2019-06-25T04:29:04.872Z,1000.0
2019-06-25T04:30:05.544Z,1000.0
2019-06-25T04:31:06.217Z,1000.0
2019-06-25T04:32:06.891Z,1000.0
2019-06-25T04:33:07.596Z,1000.0
2019-06-25T04:34:08.238Z,1000.0
2019-06-25T04:35:08.913Z,1000.0
2019-06-25T04:36:09.586Z,1000.0
2019-06-25T04:37:10.298Z,1000.0
2019-06-25T04:38:10.968Z,1000.1
2019-06-25T04:39:11.640Z,1000.1
2019-06-25T04:40:12.345Z,1000.1
2019-06-25T04:41:14.078Z,1000.1
2019-06-25T04:42:13.697Z,1000.1
2019-06-25T04:43:14.373Z,1000.1
2019-06-25T04:44:15.080Z,1000.2
2019-06-25T04:45:15.754Z,1000.2
2019-06-25T04:46:16.428Z,1000.1
2019-06-25T04:47:17.100Z,1000.1
2019-06-25T04:48:17.773Z,1000.1
2019-06-25T04:49:18.455Z,1000.1
2019-06-25T04:50:19.122Z,1000.1
2019-06-25T04:51:19.799Z,1000.1
2019-06-25T04:52:20.470Z,1000.1
2019-06-25T04:53:21.142Z,1000.1
2019-06-25T04:54:21.815Z,1000.1
2019-06-25T04:55:22.488Z,1000.1
2019-06-25T04:56:23.163Z,1000.1
2019-06-25T04:57:23.836Z,1000.1
2019-06-25T04:58:24.509Z,1000.2
2019-06-25T04:59:25.258Z,1000.2
2019-06-25T05:00:25.938Z,1000.2
2019-06-25T05:01:26.957Z,1000.2
2019-06-25T05:02:27.643Z,1000.2
2019-06-25T05:03:28.315Z,1000.2
2019-06-25T05:04:28.989Z,1000.1
2019-06-25T05:05:29.675Z,1000.2
2019-06-25T05:06:30.371Z,1000.1
2019-06-25T05:07:31.044Z,1000.2
2019-06-25T05:08:31.715Z,1000.2
2019-06-25T05:09:32.388Z,1000.2
2019-06-25T05:10:33.063Z,1000.2
2019-06-25T05:11:33.743Z,1000.2
2019-06-25T05:12:34.410Z,1000.2
2019-06-25T05:13:35.084Z,1000.2
2019-06-25T05:14:35.758Z,1000.2
2019-06-25T05:15:36.431Z,1000.2
2019-06-25T05:16:37.103Z,1000.2
2019-06-25T05:17:37.779Z,1000.2
2019-06-25T05:18:38.453Z,1000.2
2019-06-25T05:19:39.130Z,1000.2
2019-06-25T05:20:39.804Z,1000.2
2019-06-25T05:21:40.515Z,1000.1
2019-06-25T05:22:41.189Z,1000.2
2019-06-25T05:23:41.861Z,1000.2
2019-06-25T05:24:42.542Z,1000.2
2019-06-25T05:25:43.248Z,1000.2
2019-06-25T05:26:43.927Z,1000.2
2019-06-25T05:27:44.598Z,1000.2
2019-06-25T05:28:45.296Z,1000.2
2019-06-25T05:29:45.944Z,1000.2
2019-06-25T05:30:46.622Z,1000.2
2019-06-25T05:31:47.327Z,1000.2
2019-06-25T05:32:48.002Z,1000.2
2019-06-25T05:33:48.675Z,1000.2
2019-06-25T05:34:49.388Z,1000.2
2019-06-25T05:35:50.063Z,1000.2
2019-06-25T05:36:50.763Z,1000.1
2019-06-25T05:37:51.449Z,1000.1
2019-06-25T05:38:52.126Z,1000.1
2019-06-25T05:39:52.845Z,1000.1
2019-06-25T05:40:53.510Z,1000.1
2019-06-25T05:41:54.182Z,1000.1
2019-06-25T05:42:54.855Z,1000.1
2019-06-25T05:43:55.531Z,1000.2
2019-06-25T05:44:56.244Z,1000.1
2019-06-25T05:45:56.936Z,1000.1
2019-06-25T05:46:57.593Z,1000.1
2019-06-25T05:47:58.272Z,1000.1
2019-06-25T05:48:58.948Z,1000.1
2019-06-25T05:49:59.610Z,1000.1
2019-06-25T05:51:00.285Z,1000.1
2019-06-25T05:52:00.963Z,1000.1
2019-06-25T05:53:03.404Z,1000.1
2019-06-25T05:54:03.306Z,1000.1
2019-06-25T05:55:03.979Z,1000.1
2019-06-25T05:56:04.656Z,1000.2
2019-06-25T05:57:05.331Z,1000.2
2019-06-25T05:58:06.005Z,1000.2
2019-06-25T05:59:06.683Z,1000.2
2019-06-25T06:00:07.397Z,1000.2
2019-06-25T06:01:08.071Z,1000.2
2019-06-25T06:02:08.783Z,1000.2
2019-06-25T06:03:19.705Z,1000.2
2019-06-25T06:04:11.127Z,1000.1
2019-06-25T06:05:11.805Z,1000.2
2019-06-25T06:06:15.340Z,1000.2
2019-06-25T06:07:14.151Z,1000.1
2019-06-25T06:08:14.827Z,1000.2
2019-06-25T06:09:15.511Z,1000.2
2019-06-25T06:10:16.191Z,1000.2
2019-06-25T06:11:16.863Z,1000.2
2019-06-25T06:12:17.536Z,1000.2
2019-06-25T06:13:18.213Z,1000.2
2019-06-25T06:14:18.890Z,1000.2
2019-06-25T06:15:19.566Z,1000.2
2019-06-25T06:16:20.246Z,1000.2
2019-06-25T06:17:20.936Z,1000.2
2019-06-25T06:18:21.652Z,1000.3
2019-06-25T06:19:22.330Z,1000.3
2019-06-25T06:20:23.012Z,1000.3
2019-06-25T06:22:25.383Z,1000.3
2019-06-25T06:23:26.046Z,1000.2
2019-06-25T06:24:26.716Z,1000.3
2019-06-25T06:25:27.389Z,1000.3
2019-06-25T06:26:28.057Z,1000.3
2019-06-25T06:27:28.727Z,1000.3
2019-06-25T06:28:29.434Z,1000.3
2019-06-25T06:29:30.106Z,1000.3
2019-06-25T06:30:31.734Z,1000.3
2019-06-25T06:31:32.388Z,1000.4
2019-06-25T06:32:33.096Z,1000.3
2019-06-25T06:33:37.127Z,1000.3
2019-06-25T06:34:34.473Z,1000.3
2019-06-25T06:35:35.144Z,1000.3
2019-06-25T06:36:35.815Z,1000.3
2019-06-25T06:37:36.486Z,1000.3
2019-06-25T06:38:37.160Z,1000.3
2019-06-25T06:39:37.879Z,1000.3
2019-06-25T06:40:38.585Z,1000.3
2019-06-25T06:41:39.253Z,1000.3
2019-06-25T06:43:55.482Z,1000.4
2019-06-25T06:44:56.158Z,1000.3
2019-06-25T06:45:56.829Z,1000.4
2019-06-25T06:46:57.502Z,1000.3
2019-06-25T06:47:58.185Z,1000.3
2019-06-25T06:48:58.844Z,1000.3
2019-06-25T06:49:59.554Z,1000.3
2019-06-25T06:51:00.228Z,1000.3
2019-06-25T06:52:00.900Z,1000.3
2019-06-25T06:53:01.627Z,1000.3
2019-06-25T06:54:02.326Z,1000.3
2019-06-25T06:55:02.997Z,1000.3
2019-06-25T06:56:03.717Z,1000.3
2019-06-25T06:57:04.416Z,1000.3
2019-06-25T06:58:05.387Z,1000.4
2019-06-25T06:59:05.799Z,1000.4
2019-06-25T07:00:06.476Z,1000.3
2019-06-25T07:01:07.147Z,1000.3
2019-06-25T07:02:07.824Z,1000.3
2019-06-25T07:04:38.254Z,1000.3
2019-06-25T07:05:39.516Z,1000.3
2019-06-25T07:06:40.191Z,1000.3
2019-06-25T07:07:40.868Z,1000.3
2019-06-25T07:09:57.058Z,1000.3
2019-06-25T07:10:57.894Z,1000.3
2019-06-25T07:11:58.468Z,1000.3
2019-06-25T07:12:59.191Z,1000.3
2019-06-25T07:13:59.875Z,1000.2
2019-06-25T07:15:00.564Z,1000.2
2019-06-25T07:16:01.245Z,1000.3
2019-06-25T07:17:01.944Z,1000.2
2019-06-25T07:18:02.720Z,1000.3
2019-06-25T07:19:03.378Z,1000.3
2019-06-25T07:20:04.099Z,1000.2
2019-06-25T07:21:04.783Z,1000.3
2019-06-25T07:22:08.862Z,1000.3
2019-06-25T07:23:06.186Z,1000.3
2019-06-25T07:24:06.871Z,1000.2
2019-06-25T07:25:07.557Z,1000.2
2019-06-25T07:26:08.242Z,1000.2
2019-06-25T07:27:08.926Z,1000.2
2019-06-25T07:28:09.612Z,1000.2
2019-06-25T07:29:10.299Z,1000.2
2019-06-25T07:30:10.984Z,1000.2
2019-06-25T07:31:11.669Z,1000.2
2019-06-25T07:32:12.351Z,1000.2
2019-06-25T07:33:13.036Z,1000.2
2019-06-25T07:34:13.738Z,1000.2
2019-06-25T07:35:14.444Z,1000.2
2019-06-25T07:36:15.128Z,1000.2
2019-06-25T07:37:15.815Z,1000.2
2019-06-25T07:38:16.501Z,1000.2
2019-06-25T07:39:17.186Z,1000.2
2019-06-25T07:40:17.872Z,1000.2
2019-06-25T07:41:18.557Z,1000.2
2019-06-25T07:42:19.240Z,1000.2
2019-06-25T07:43:19.933Z,1000.2
2019-06-25T07:44:20.651Z,1000.2
2019-06-25T07:45:21.337Z,1000.1
2019-06-25T07:46:22.020Z,1000.1
2019-06-25T07:47:22.703Z,1000.2
2019-06-25T07:48:23.427Z,1000.2
2019-06-25T07:49:24.111Z,1000.1
2019-06-25T07:50:24.797Z,1000.1
2019-06-25T07:51:25.484Z,1000.1
2019-06-25T07:52:26.168Z,1000.1
2019-06-25T07:53:26.853Z,1000.1
2019-06-25T07:54:27.541Z,1000.1
2019-06-25T07:55:28.226Z,1000.1
2019-06-25T07:56:36.598Z,1000.1
2019-06-25T07:57:29.633Z,1000.1
2019-06-25T07:58:30.312Z,1000.1
2019-06-25T07:59:30.997Z,1000.2
2019-06-25T08:00:31.694Z,1000.2
2019-06-25T08:01:32.426Z,1000.2
2019-06-25T08:02:33.133Z,1000.2
2019-06-25T08:03:33.818Z,1000.2
2019-06-25T08:04:34.509Z,1000.2
2019-06-25T08:05:35.337Z,1000.2
2019-06-25T08:06:35.943Z,1000.1
2019-06-25T08:07:36.665Z,1000.1
2019-06-25T08:08:37.351Z,1000.1
2019-06-25T08:09:38.050Z,1000.1
2019-06-25T08:10:40.989Z,1000.1
2019-06-25T08:11:40.403Z,1000.1
2019-06-25T08:12:41.079Z,1000.1
2019-06-25T08:13:41.768Z,1000.1
2019-06-25T08:14:42.453Z,1000.1
2019-06-25T08:15:43.139Z,1000.1
2019-06-25T08:16:43.829Z,1000.1
2019-06-25T08:17:44.531Z,1000.1
2019-06-25T08:18:45.222Z,1000.0
2019-06-25T08:19:45.916Z,1000.0
2019-06-25T08:20:46.600Z,1000.0
2019-06-25T08:21:47.288Z,1000.0
2019-06-25T08:22:47.995Z,1000.0
2019-06-25T08:23:48.691Z,1000.0
2019-06-25T08:24:49.474Z,1000.0
2019-06-25T08:25:50.172Z,1000.0
2019-06-25T08:26:50.888Z,1000.0
2019-06-25T08:27:51.570Z,999.9
2019-06-25T08:28:52.257Z,999.9
2019-06-25T08:29:52.946Z,999.9
2019-06-25T08:30:53.624Z,999.9
2019-06-25T08:31:54.309Z,999.9
2019-06-25T08:32:54.996Z,999.9
2019-06-25T08:33:55.679Z,999.9
2019-06-25T08:34:56.363Z,999.9
2019-06-25T08:35:57.049Z,999.9
2019-06-25T08:36:57.730Z,999.9
2019-06-25T08:37:58.415Z,999.9
2019-06-25T08:38:59.097Z,999.9
2019-06-25T08:39:59.802Z,999.8
2019-06-25T08:41:00.513Z,999.9
2019-06-25T08:42:01.189Z,999.8
2019-06-25T08:43:01.871Z,999.8
2019-06-25T08:44:02.554Z,999.8
2019-06-25T08:45:03.399Z,999.9
2019-06-25T08:46:04.030Z,999.8
2019-06-25T08:47:04.710Z,999.9
2019-06-25T08:48:05.453Z,999.9
2019-06-25T08:49:06.085Z,999.8
2019-06-25T08:50:06.782Z,999.9
2019-06-25T08:51:07.504Z,999.8
2019-06-25T08:52:08.222Z,999.8
2019-06-25T08:53:08.906Z,999.8
2019-06-25T08:54:09.587Z,999.8
2019-06-25T08:55:10.271Z,999.9
2019-06-25T08:56:10.955Z,999.9
2019-06-25T08:57:11.639Z,999.9
2019-06-25T08:58:12.326Z,999.9
2019-06-25T08:59:13.003Z,999.9
2019-06-25T09:00:13.686Z,999.9
2019-06-25T09:01:14.371Z,999.9
2019-06-25T09:02:15.052Z,1000.0
2019-06-25T09:03:15.734Z,999.9
2019-06-25T09:04:16.420Z,999.9
2019-06-25T09:05:17.102Z,999.9
2019-06-25T09:06:17.788Z,999.9
2019-06-25T09:07:18.510Z,999.9
2019-06-25T09:08:19.184Z,999.9
2019-06-25T09:09:19.866Z,999.9
2019-06-25T09:10:20.548Z,999.9
2019-06-25T09:11:21.230Z,999.9
2019-06-25T09:12:21.914Z,999.9
2019-06-25T09:13:22.597Z,999.9
2019-06-25T09:14:23.279Z,999.9
2019-06-25T09:15:23.963Z,1000.0
2019-06-25T09:16:24.649Z,999.9
2019-06-25T09:17:25.331Z,999.9
2019-06-25T09:18:26.020Z,999.9
2019-06-25T09:19:26.695Z,999.9
2019-06-25T09:20:27.380Z,999.9
2019-06-25T09:21:28.061Z,999.9
2019-06-25T09:22:28.746Z,999.9
2019-06-25T09:23:29.429Z,999.9
2019-06-25T09:24:30.112Z,999.9
2019-06-25T09:25:30.794Z,999.9
2019-06-25T09:26:31.506Z,999.9
2019-06-25T09:27:32.202Z,999.9
2019-06-25T09:28:32.884Z,999.9
2019-06-25T09:29:33.572Z,1000.0
2019-06-25T09:30:36.903Z,1000.0
2019-06-25T09:31:35.919Z,999.9
2019-06-25T09:32:36.609Z,1000.0
2019-06-25T09:33:37.286Z,999.9
2019-06-25T09:34:37.969Z,1000.0
2019-06-25T09:35:38.650Z,999.9
2019-06-25T09:36:39.390Z,999.9
2019-06-25T09:37:40.016Z,999.9
2019-06-25T09:38:40.698Z,999.9
2019-06-25T09:39:41.379Z,999.9
2019-06-25T09:40:42.068Z,999.9
2019-06-25T09:41:42.750Z,999.9
2019-06-25T09:42:43.430Z,999.9
2019-06-25T09:43:59.000Z,999.9
2019-06-25T09:44:45.792Z,999.9
2019-06-25T09:45:46.476Z,999.9
2019-06-25T09:46:47.161Z,999.9
2019-06-25T09:47:47.840Z,999.9
2019-06-25T09:48:48.524Z,999.9
2019-06-25T09:49:49.208Z,999.9
2019-06-25T09:50:49.893Z,999.8
2019-06-25T09:51:50.577Z,999.8
2019-06-25T09:52:51.301Z,999.9
2019-06-25T09:53:52.045Z,999.8
2019-06-25T09:54:52.753Z,999.8
2019-06-25T09:55:53.434Z,999.8
2019-06-25T09:56:54.144Z,999.8
2019-06-25T09:57:54.832Z,999.8
2019-06-25T09:58:55.514Z,999.8
2019-06-25T09:59:56.195Z,999.9
2019-06-25T10:00:57.165Z,999.8
2019-06-25T10:01:57.653Z,999.8
2019-06-25T10:02:58.337Z,999.8
2019-06-25T10:03:59.067Z,999.9
2019-06-25T10:04:59.778Z,999.8
2019-06-25T10:06:00.461Z,999.8
2019-06-25T10:07:01.144Z,999.8
2019-06-25T10:08:01.825Z,999.8
2019-06-25T10:09:02.512Z,999.8
2019-06-25T10:10:03.193Z,999.8
2019-06-25T10:11:03.882Z,999.8
2019-06-25T10:12:04.557Z,999.9
2019-06-25T10:13:05.239Z,999.8
2019-06-25T10:14:05.920Z,999.8
2019-06-25T10:15:06.617Z,999.9
2019-06-25T10:16:07.395Z,999.9
2019-06-25T10:17:08.059Z,999.9
2019-06-25T10:18:08.780Z,999.9
2019-06-25T10:19:09.463Z,999.9
2019-06-25T10:20:10.206Z,999.9
2019-06-25T10:21:10.906Z,999.9
2019-06-25T10:22:11.587Z,999.9
2019-06-25T10:23:12.272Z,999.9
2019-06-25T10:24:12.951Z,999.8
2019-06-25T10:25:13.637Z,999.8
2019-06-25T10:26:14.331Z,999.8
2019-06-25T10:27:15.005Z,999.8
2019-06-25T10:28:28.787Z,999.8
2019-06-25T10:29:17.360Z,999.7
2019-06-25T10:30:18.043Z,999.7
2019-06-25T10:31:18.766Z,999.7
2019-06-25T10:32:19.471Z,999.7
2019-06-25T10:33:20.123Z,999.7
2019-06-25T10:34:20.802Z,999.7
2019-06-25T10:35:21.494Z,999.7
2019-06-25T10:36:22.179Z,999.7
2019-06-25T10:37:22.863Z,999.7
2019-06-25T10:38:23.547Z,999.7
2019-06-25T10:39:24.229Z,999.7
2019-06-25T10:40:24.920Z,999.7
2019-06-25T10:41:25.657Z,999.7
2019-06-25T10:42:26.353Z,999.6
2019-06-25T10:43:27.034Z,999.6
2019-06-25T10:44:43.361Z,999.6
2019-06-25T10:45:44.024Z,999.6
2019-06-25T10:46:57.581Z,999.6
2019-06-25T10:47:58.261Z,999.5
2019-06-25T10:48:58.960Z,999.6
2019-06-25T10:49:59.672Z,999.6
2019-06-25T10:51:00.332Z,999.6
2019-06-25T10:52:01.039Z,999.6
2019-06-25T10:54:04.492Z,999.6
2019-06-25T10:55:05.160Z,999.6
2019-06-25T10:56:05.829Z,999.6
2019-06-25T10:57:06.499Z,999.6
2019-06-25T10:58:07.167Z,999.5
2019-06-25T10:59:07.843Z,999.6
2019-06-25T11:00:08.540Z,999.5
2019-06-25T11:01:09.188Z,999.4
2019-06-25T11:02:10.024Z,999.6
2019-06-25T11:03:10.797Z,999.5
2019-06-25T11:04:11.474Z,999.5
2019-06-25T11:05:12.176Z,999.5
2019-06-25T11:06:12.853Z,999.5
2019-06-25T11:07:13.517Z,999.6
2019-06-25T11:08:14.223Z,999.5
2019-06-25T11:09:14.943Z,999.5
2019-06-25T11:10:15.611Z,999.5
2019-06-25T11:11:16.319Z,999.5
2019-06-25T11:12:16.986Z,999.5
2019-06-25T11:13:17.669Z,999.5
2019-06-25T11:14:18.395Z,999.4
2019-06-25T11:15:19.030Z,999.4
2019-06-25T11:16:19.720Z,999.4
2019-06-25T11:17:20.399Z,999.4
2019-06-25T11:18:21.075Z,999.4
2019-06-25T11:19:21.726Z,999.5
2019-06-25T11:20:22.398Z,999.5
2019-06-25T11:21:23.107Z,999.4
2019-06-25T11:22:23.811Z,999.4
2019-06-25T11:23:24.480Z,999.5
2019-06-25T11:24:25.181Z,999.5
2019-06-25T11:25:25.854Z,999.4
2019-06-25T11:26:26.531Z,999.4
2019-06-25T11:27:27.236Z,999.4
2019-06-25T11:28:27.911Z,999.4
2019-06-25T11:29:28.570Z,999.4
2019-06-25T11:30:29.244Z,999.4
2019-06-25T11:31:29.920Z,999.4
2019-06-25T11:32:30.701Z,999.4
2019-06-25T11:33:31.323Z,999.4
2019-06-25T11:34:31.994Z,999.5
2019-06-25T11:35:32.663Z,999.5
2019-06-25T11:36:33.333Z,999.4
2019-06-25T11:37:34.041Z,999.4
2019-06-25T11:38:34.760Z,999.4
2019-06-25T11:39:35.470Z,999.4
2019-06-25T11:40:36.137Z,999.5
2019-06-25T11:41:36.814Z,999.4
2019-06-25T11:42:37.515Z,999.4
2019-06-25T11:43:44.097Z,999.4
2019-06-25T11:44:39.853Z,999.3
2019-06-25T11:45:40.526Z,999.3
2019-06-25T11:46:41.224Z,999.3
2019-06-25T11:47:41.893Z,999.4
2019-06-25T11:48:42.563Z,999.4
2019-06-25T11:49:43.237Z,999.3
2019-06-25T11:50:43.902Z,999.4
2019-06-25T11:51:44.573Z,999.3
2019-06-25T11:52:45.243Z,999.3
2019-06-25T11:53:45.949Z,999.3
2019-06-25T11:54:46.617Z,999.3
2019-06-25T11:55:47.288Z,999.3
2019-06-25T11:56:47.959Z,999.3
2019-06-25T11:57:48.630Z,999.3
2019-06-25T11:58:49.302Z,999.2
2019-06-25T11:59:49.973Z,999.2
2019-06-25T12:00:50.641Z,999.2
2019-06-25T12:01:51.304Z,999.2
2019-06-25T12:02:52.045Z,999.2
2019-06-25T12:03:52.724Z,999.2
2019-06-25T12:04:53.395Z,999.2
2019-06-25T12:05:54.063Z,999.2
2019-06-25T12:06:55.061Z,999.2
2019-06-25T12:07:55.734Z,999.2
2019-06-25T12:08:56.402Z,999.2
2019-06-25T12:09:57.332Z,999.2
2019-06-25T12:10:57.775Z,999.2
2019-06-25T12:11:58.444Z,999.1
2019-06-25T12:12:59.143Z,999.2
2019-06-25T12:13:59.818Z,999.1
2019-06-25T12:15:00.488Z,999.1
2019-06-25T12:16:01.159Z,999.1
2019-06-25T12:17:01.829Z,999.1
2019-06-25T12:18:02.500Z,999.2
2019-06-25T12:19:03.170Z,999.2
2019-06-25T12:20:03.838Z,999.2
2019-06-25T12:21:04.505Z,999.1
2019-06-25T12:22:05.175Z,999.2
2019-06-25T12:23:05.844Z,999.1
2019-06-25T12:24:06.517Z,999.2
2019-06-25T12:25:07.204Z,999.1
2019-06-25T12:26:07.899Z,999.1
2019-06-25T12:27:08.562Z,999.1
2019-06-25T12:28:09.255Z,999.1
2019-06-25T12:29:09.914Z,999.2
2019-06-25T12:30:10.610Z,999.1
2019-06-25T12:31:11.320Z,999.1
2019-06-25T12:32:12.023Z,999.1
2019-06-25T12:33:12.701Z,999.1
2019-06-25T12:34:13.363Z,999.1
2019-06-25T12:35:14.044Z,999.1
2019-06-25T12:36:14.745Z,999.2
2019-06-25T12:37:15.415Z,999.1
2019-06-25T12:38:16.086Z,999.1
2019-06-25T12:39:16.760Z,999.1
2019-06-25T12:40:20.296Z,999.1
2019-06-25T12:41:19.091Z,999.0
2019-06-25T12:42:19.795Z,999.0
2019-06-25T12:43:20.464Z,999.0
2019-06-25T12:44:21.133Z,999.0
2019-06-25T12:45:21.800Z,999.0
2019-06-25T12:46:22.471Z,999.0
2019-06-25T12:47:23.139Z,999.0
2019-06-25T12:48:23.808Z,999.0
2019-06-25T12:49:24.480Z,998.9
2019-06-25T12:50:25.153Z,999.0
2019-06-25T12:51:25.861Z,998.9
2019-06-25T12:52:26.529Z,998.9
2019-06-25T12:53:27.199Z,999.0
2019-06-25T12:54:27.937Z,998.9
2019-06-25T12:55:28.568Z,998.9
2019-06-25T12:56:29.249Z,998.9
2019-06-25T12:57:29.944Z,998.9
2019-06-25T12:58:30.633Z,998.9
2019-06-25T12:59:31.328Z,998.9
2019-06-25T13:00:32.003Z,998.9
2019-06-25T13:01:41.175Z,998.9
2019-06-25T13:02:34.359Z,998.8
2019-06-25T13:03:35.031Z,998.8
2019-06-25T13:04:35.701Z,998.8
2019-06-25T13:05:36.368Z,998.8
2019-06-25T13:06:37.040Z,998.8
2019-06-25T13:07:37.724Z,998.8
2019-06-25T13:08:38.456Z,998.8
2019-06-25T13:09:39.101Z,998.8
2019-06-25T13:10:44.092Z,998.8
2019-06-25T13:11:41.552Z,998.8
2019-06-25T13:12:42.126Z,998.8
2019-06-25T13:13:42.797Z,998.8
2019-06-25T13:14:43.466Z,998.8
2019-06-25T13:15:44.241Z,998.8
2019-06-25T13:16:44.845Z,998.8
2019-06-25T13:17:45.517Z,998.8
2019-06-25T13:18:46.189Z,998.8
2019-06-25T13:19:46.892Z,998.7
2019-06-25T13:20:47.561Z,998.7
2019-06-25T13:21:48.229Z,998.7
2019-06-25T13:22:48.901Z,998.7
2019-06-25T13:23:49.578Z,998.8
2019-06-25T13:24:51.270Z,998.7
2019-06-25T13:25:51.979Z,998.7
2019-06-25T13:26:52.647Z,998.6
2019-06-25T13:27:53.316Z,998.6
2019-06-25T13:28:53.984Z,998.7
2019-06-25T13:29:54.660Z,998.6
2019-06-25T13:30:55.358Z,998.6
2019-06-25T13:31:56.027Z,998.6
2019-06-25T13:32:56.736Z,998.6
2019-06-25T13:33:57.414Z,998.6
2019-06-25T13:34:58.113Z,998.6
2019-06-25T13:35:58.821Z,998.6
2019-06-25T13:36:59.491Z,998.6
2019-06-25T13:38:00.179Z,998.6
2019-06-25T13:39:00.870Z,998.6
2019-06-25T13:40:01.627Z,998.6
2019-06-25T13:41:02.243Z,998.6
2019-06-25T13:42:05.024Z,998.6
2019-06-25T13:43:04.583Z,998.6
2019-06-25T13:44:05.245Z,998.6
2019-06-25T13:45:05.927Z,998.6
2019-06-25T13:46:06.589Z,998.6
2019-06-25T13:47:07.293Z,998.6
2019-06-25T13:48:12.222Z,998.6
2019-06-25T13:49:09.622Z,998.6
2019-06-25T13:50:10.297Z,998.6
2019-06-25T13:51:10.968Z,998.6
2019-06-25T13:52:11.637Z,998.6
2019-06-25T13:53:12.322Z,998.6
2019-06-25T13:54:13.009Z,998.6
2019-06-25T13:55:13.682Z,998.6
2019-06-25T13:56:14.355Z,998.6
2019-06-25T13:57:15.021Z,998.6
2019-06-25T13:58:15.692Z,998.5
2019-06-25T13:59:16.362Z,998.5
2019-06-25T14:00:17.302Z,998.5
2019-06-25T14:01:17.939Z,998.5
2019-06-25T14:02:18.642Z,998.5
2019-06-25T14:03:19.319Z,998.4
2019-06-25T14:04:20.028Z,998.5
2019-06-25T14:05:21.063Z,998.5
2019-06-25T14:06:21.810Z,998.5
2019-06-25T14:07:22.479Z,998.5
2019-06-25T14:08:23.149Z,998.5
2019-06-25T14:09:23.817Z,998.5
2019-06-25T14:10:24.511Z,998.4
2019-06-25T14:11:25.193Z,998.5
2019-06-25T14:12:25.889Z,998.5
2019-06-25T14:13:26.588Z,998.4
2019-06-25T14:14:27.229Z,998.4
2019-06-25T14:15:27.896Z,998.4
2019-06-25T14:16:28.566Z,998.4
2019-06-25T14:17:29.242Z,998.4
2019-06-25T14:18:29.918Z,998.4
2019-06-25T14:19:30.631Z,998.4
2019-06-25T14:20:31.328Z,998.4
2019-06-25T14:21:34.197Z,998.4
2019-06-25T14:22:32.701Z,998.4
2019-06-25T14:23:33.369Z,998.4
2019-06-25T14:24:34.041Z,998.4
2019-06-25T14:25:34.731Z,998.4
2019-06-25T14:26:35.380Z,998.4
2019-06-25T14:27:36.048Z,998.4
2019-06-25T14:28:36.779Z,998.4
2019-06-25T14:29:37.418Z,998.4
2019-06-25T14:30:38.086Z,998.4
2019-06-25T14:31:38.758Z,998.4
2019-06-25T14:32:39.469Z,998.4
2019-06-25T14:33:40.136Z,998.5
2019-06-25T14:34:40.812Z,998.4
2019-06-25T14:35:41.475Z,998.4
2019-06-25T14:36:42.180Z,998.4
2019-06-25T14:37:42.867Z,998.4
2019-06-25T14:38:43.559Z,998.4
2019-06-25T14:39:44.228Z,998.3
2019-06-25T14:40:44.901Z,998.3
2019-06-25T14:41:45.570Z,998.3
2019-06-25T14:42:46.239Z,998.3
2019-06-25T14:43:46.924Z,998.3
2019-06-25T14:44:47.585Z,998.3
2019-06-25T14:45:48.252Z,998.2
2019-06-25T14:46:48.925Z,998.2
2019-06-25T14:47:49.632Z,998.3
2019-06-25T14:48:50.297Z,998.3
2019-06-25T14:49:50.966Z,998.3
2019-06-25T14:50:51.674Z,998.3
2019-06-25T14:51:52.394Z,998.2
2019-06-25T14:52:53.048Z,998.2
2019-06-25T14:53:53.720Z,998.2
2019-06-25T14:54:54.426Z,998.2
2019-06-25T14:55:55.183Z,998.2
2019-06-25T14:56:56.836Z,998.2
2019-06-25T14:57:57.483Z,998.1
2019-06-25T14:58:58.144Z,998.1
2019-06-25T14:59:58.810Z,998.1
2019-06-25T15:00:59.484Z,998.2
2019-06-25T15:02:00.154Z,998.2
2019-06-25T15:03:00.860Z,998.2
2019-06-25T15:04:01.528Z,998.1
2019-06-25T15:05:02.199Z,998.1
2019-06-25T15:06:02.869Z,998.1
2019-06-25T15:07:03.579Z,998.1
2019-06-25T15:08:04.265Z,998.1